Impacts TAF Board INFO
IDs:

KEWR - Newark Intl, NJ, US

Issued at 2134 UTC 02 Dec 2016
Updated at 2213 UTC 02 Dec 2016
Potential Impact None Slight Moderate High
Time2151Z 02/23Z 03/00Z 03/01Z 03/02Z 03/03Z 03/04Z 03/05Z 03/06Z 03/07Z 03/08Z 03/09Z 03/10Z 03/11Z
Type OBS PRVL PRVL PRVL PRVL PRVL PRVL PRVL PRVL PRVL PRVL PRVL PRVL PRVL
VIS 10 >6 >6 >6 >6 >6 >6 >6 >6 >6 >6 >6 >6 >6
CIG 65 -- -- -- -- -- -- -- -- -- -- -- -- --
Cover BKN SCT SCT SCT SCT SCT SCT SCT SCT SCT SCT SCT SCT SCT
FltCat VFR VFR VFR VFR VFR VFR VFR VFR VFR VFR VFR VFR VFR VFR
WX -- -- -- -- -- -- -- -- -- -- -- -- -- --
WDir 260 300 300 300 300 300 300 300 280 280 280 280 280 280
WSpd 16 16 16 16 16 16 16 16 13 13 13 13 13 13
WGst 22 22 22 22 22 22 22 22 19 19 19 19 19 19

Raw TAF
KEWR 022134Z 0222/0324 30016G22KT P6SM SCT040
  FM030600 28013G19KT P6SM SCT040
  FM031300 31015G25KT P6SM BKN040
  FM031700 30021G30KT P6SM BKN040


Raw METAR
KEWR 022151Z 26016G22KT 10SM BKN065 BKN250 09/M03 A2989 RMK AO2 PK WND 27026/2131 SLP121 T00891028 $
KEWR 022051Z COR 26013G22KT 10SM FEW055 BKN065 BKN250 10/M02 A2988 RMK AO2 SLP117 T01001022 51003 $
KEWR 022047Z 26014G22KT 10SM FEW055 BKN065 BKN250 10/M02 A2988 RMK AO2 $
KEWR 021951Z 30011G19KT 10SM BKN055 BKN250 11/M04 A2987 RMK SLP115 T01121037

METAR Board
Radar Display
Forecast Discussion